Time;durP1;ratioP1;P1;durP2;ratioP2;P2;SDS_P1;SDS_P2;PMS_P1;PMS_P2;Temp;Humidity;BMP_temperature;BMP_pressure;BME280_temperature;BME280_humidity;BME280_pressure;Samples;Min_cycle;Max_cycle;Signal;HPM_P1;HPM_P2
2021/06/12 04:02:33;;;;;;;6.33;5.73;;;;;;;;;;5034522;23;20985;-79
2021/06/12 04:04:58;;;;;;;8.57;6.57;;;16.50;96.30;;;;;;4956996;29;20438;-79
2021/06/12 04:07:25;;;;;;;8.67;5.90;;;16.80;96.30;;;;;;4956754;28;20465;-77
2021/06/12 04:09:51;;;;;;;6.10;5.60;;;16.90;96.30;;;;;;4971803;28;20222;-77
2021/06/12 04:12:16;;;;;;;6.97;6.37;;;17.00;96.30;;;;;;4957163;28;20427;-77
2021/06/12 04:14:42;;;;;;;6.53;6.03;;;17.10;96.30;;;;;;4957460;28;20223;-79
2021/06/12 04:17:08;;;;;;;13.37;6.93;;;17.10;96.30;;;;;;4956385;28;20182;-78
2021/06/12 04:19:33;;;;;;;6.63;6.13;;;17.40;96.30;;;;;;4958443;28;20190;-78
2021/06/12 04:21:59;;;;;;;7.33;6.60;;;17.70;96.30;;;;;;4956572;28;20190;-79
2021/06/12 04:24:24;;;;;;;6.17;5.63;;;17.70;96.30;;;;;;4956727;28;20179;-79
2021/06/12 04:26:49;;;;;;;6.57;6.07;;;17.80;96.30;;;;;;4956236;28;20203;-78
2021/06/12 04:29:15;;;;;;;6.30;5.77;;;17.80;96.30;;;;;;4956678;28;20180;-79
2021/06/12 04:31:41;;;;;;;8.87;6.07;;;18.00;96.30;;;;;;4956753;28;20687;-79
2021/06/12 04:34:06;;;;;;;10.57;6.90;;;17.90;96.30;;;;;;4961101;28;20171;-79
2021/06/12 04:36:32;;;;;;;6.13;5.57;;;18.10;96.30;;;;;;4959199;28;20190;-78
2021/06/12 04:38:57;;;;;;;7.30;6.60;;;17.90;96.30;;;;;;4956931;28;20179;-78
2021/06/12 04:41:23;;;;;;;7.10;5.67;;;17.90;96.30;;;;;;4956591;28;20195;-78
2021/06/12 04:43:49;;;;;;;6.70;6.10;;;17.90;96.30;;;;;;4958061;28;20262;-78
2021/06/12 04:46:14;;;;;;;6.00;5.50;;;18.10;96.30;;;;;;4957106;28;20234;-79
2021/06/12 04:48:40;;;;;;;7.20;6.60;;;18.60;96.30;;;;;;4956517;28;20444;-79
2021/06/12 04:51:07;;;;;;;6.47;5.87;;;18.90;96.30;;;;;;4956404;28;20238;-79
2021/06/12 04:53:33;;;;;;;6.57;5.97;;;19.20;96.30;;;;;;4956392;28;20419;-79
2021/06/12 04:55:59;;;;;;;8.43;4.73;;;19.30;96.30;;;;;;4956231;28;20704;-78
2021/06/12 04:58:24;;;;;;;4.90;4.57;;;19.50;96.30;;;;;;4956315;28;20179;-79
2021/06/12 05:00:51;;;;;;;5.67;4.47;;;19.30;96.30;;;;;;4956238;28;20461;-79
2021/06/12 05:03:19;;;;;;;5.63;5.03;;;19.00;96.30;;;;;;4956439;28;20159;-78
2021/06/12 05:05:45;;;;;;;5.80;5.20;;;19.70;96.30;;;;;;4956246;28;20427;-79
2021/06/12 05:08:10;;;;;;;6.53;6.00;;;20.30;96.30;;;;;;4954455;28;20418;-79
2021/06/12 05:10:36;;;;;;;7.23;5.93;;;20.40;96.30;;;;;;4955919;28;20199;-80
2021/06/12 05:13:02;;;;;;;10.90;5.83;;;20.80;96.30;;;;;;4955998;28;20259;-79
2021/06/12 05:15:28;;;;;;;6.43;5.83;;;21.00;96.30;;;;;;4956154;28;20207;-79
2021/06/12 05:17:56;;;;;;;8.70;6.53;;;21.30;96.30;;;;;;4955677;28;20427;-80
2021/06/12 05:20:21;;;;;;;6.00;5.40;;;21.30;96.30;;;;;;4958443;28;20421;-80
2021/06/12 05:22:49;;;;;;;8.60;6.10;;;21.00;96.30;;;;;;4958128;28;20434;-80
2021/06/12 05:25:15;;;;;;;5.83;5.33;;;20.60;96.30;;;;;;4956827;29;20202;-80
2021/06/12 05:27:40;;;;;;;6.97;5.60;;;20.30;96.30;;;;;;4957633;28;20820;-80
2021/06/12 05:30:06;;;;;;;7.20;5.40;;;20.10;96.30;;;;;;4957959;28;20171;-81
2021/06/12 05:32:32;;;;;;;11.33;6.43;;;20.00;96.30;;;;;;4958524;28;20201;-80
2021/06/12 05:34:59;;;;;;;6.63;6.13;;;20.10;96.30;;;;;;4959057;28;20411;-80
2021/06/12 05:37:25;;;;;;;8.27;6.20;;;20.10;96.30;;;;;;4957970;28;20549;-80
2021/06/12 05:39:51;;;;;;;7.20;6.60;;;20.30;96.30;;;;;;4958179;28;20419;-82
2021/06/12 05:42:16;;;;;;;9.47;6.20;;;20.30;96.30;;;;;;4956376;28;20209;-80
2021/06/12 05:44:42;;;;;;;6.90;6.20;;;20.20;96.30;;;;;;4958826;28;20176;-81
2021/06/12 05:47:07;;;;;;;7.07;6.47;;;20.50;96.30;;;;;;4959477;28;20199;-80
2021/06/12 05:49:33;;;;;;;6.37;5.77;;;20.60;96.30;;;;;;4947442;28;20180;-80
2021/06/12 05:51:58;;;;;;;8.17;6.30;;;20.50;96.30;;;;;;4941786;29;20196;-80
2021/06/12 05:54:24;;;;;;;7.10;6.53;;;20.60;96.30;;;;;;4938925;29;20175;-80
2021/06/12 05:56:49;;;;;;;6.50;5.83;;;20.30;96.30;;;;;;4942400;29;20179;-80
2021/06/12 05:59:15;;;;;;;7.07;6.37;;;20.00;96.30;;;;;;4943604;29;20180;-80
2021/06/12 06:01:40;;;;;;;6.80;6.20;;;20.40;96.30;;;;;;4944580;29;20211;-80
2021/06/12 06:04:06;;;;;;;8.20;6.20;;;21.00;96.30;;;;;;4943542;29;20558;-80
2021/06/12 06:06:31;;;;;;;7.50;6.30;;;20.60;96.30;;;;;;4942871;29;20254;-80
2021/06/12 06:08:57;;;;;;;9.23;6.73;;;20.40;96.30;;;;;;4943455;29;20179;-80
2021/06/12 06:11:22;;;;;;;7.63;5.73;;;20.40;96.30;;;;;;4959835;29;20233;-80
2021/06/12 06:13:48;;;;;;;7.30;5.80;;;20.70;96.30;;;;;;4961383;28;20167;-80
2021/06/12 06:16:13;;;;;;;10.00;8.20;;;21.00;96.30;;;;;;4958569;29;20745;-81
2021/06/12 06:18:40;;;;;;;15.47;6.60;;;21.30;96.30;;;;;;4961078;28;20269;-80
2021/06/12 06:21:07;;;;;;;7.80;7.10;;;21.40;96.30;;;;;;4963258;29;20218;-80
2021/06/12 06:23:33;;;;;;;11.63;6.93;;;21.30;96.30;;;;;;4961245;28;20434;-81
2021/06/12 06:25:59;;;;;;;7.37;6.70;;;21.50;96.30;;;;;;4960941;28;20458;-80
2021/06/12 06:28:24;;;;;;;6.63;5.93;;;21.50;96.30;;;;;;4960243;28;20205;-81
2021/06/12 06:30:50;;;;;;;7.47;6.17;;;21.60;96.30;;;;;;4955978;29;20450;-82
2021/06/12 06:33:15;;;;;;;11.10;6.80;;;22.00;96.30;;;;;;4955395;28;20552;-80
2021/06/12 06:35:41;;;;;;;7.10;6.50;;;21.70;96.30;;;;;;4954600;28;20266;-80
2021/06/12 06:38:08;;;;;;;7.90;6.23;;;21.80;96.30;;;;;;4954490;28;20303;-80
2021/06/12 06:40:33;;;;;;;7.20;6.50;;;21.70;96.30;;;;;;4953428;28;20560;-79
2021/06/12 06:42:59;;;;;;;6.70;5.70;;;21.80;96.30;;;;;;4954425;28;20469;-80
2021/06/12 06:45:25;;;;;;;6.80;6.10;;;22.60;96.30;;;;;;4954495;28;20635;-79
2021/06/12 06:47:51;;;;;;;9.27;6.70;;;23.70;96.30;;;;;;4953692;28;20695;-79
2021/06/12 06:50:16;;;;;;;10.97;6.03;;;24.40;96.00;;;;;;4954858;28;20210;-79
2021/06/12 06:52:43;;;;;;;9.60;5.80;;;24.40;96.00;;;;;;4952921;29;20183;-79
2021/06/12 06:55:09;;;;;;;6.50;5.80;;;24.20;93.00;;;;;;4954360;28;20182;-79
2021/06/12 06:57:35;;;;;;;8.17;6.13;;;23.10;96.30;;;;;;4953856;28;20424;-79
2021/06/12 07:00:01;;;;;;;7.67;6.27;;;22.80;96.30;;;;;;4953239;28;20509;-79
2021/06/12 07:02:26;;;;;;;5.47;4.90;;;22.70;96.30;;;;;;4953869;28;20218;-79
2021/06/12 07:04:51;;;;;;;5.50;5.00;;;22.60;96.30;;;;;;4954025;28;20179;-80
2021/06/12 07:07:17;;;;;;;5.33;4.73;;;22.60;96.30;;;;;;4953612;28;20208;-79
2021/06/12 07:09:43;;;;;;;6.03;5.50;;;22.60;96.30;;;;;;4954266;28;20592;-79
2021/06/12 07:12:10;;;;;;;8.90;5.73;;;22.40;96.30;;;;;;4956504;28;20203;-79
2021/06/12 07:14:37;;;;;;;6.07;5.50;;;22.70;96.30;;;;;;4958427;28;20210;-80
2021/06/12 07:17:03;;;;;;;5.97;5.40;;;22.80;96.30;;;;;;4957849;28;20418;-79
2021/06/12 07:19:29;;;;;;;7.83;5.17;;;22.70;96.30;;;;;;4956689;29;21062;-79
2021/06/12 07:21:55;;;;;;;5.90;5.40;;;22.70;96.30;;;;;;4967307;28;20453;-80
2021/06/12 07:24:21;;;;;;;5.80;5.23;;;22.70;96.30;;;;;;4979998;28;20178;-80
2021/06/12 07:26:47;;;;;;;6.57;5.83;;;22.90;96.30;;;;;;4960793;28;20199;-81
2021/06/12 07:29:12;;;;;;;5.73;5.13;;;23.30;96.30;;;;;;4956085;29;20834;-80
2021/06/12 07:31:40;;;;;;;5.87;5.30;;;23.90;96.00;;;;;;4957906;28;20194;-79
2021/06/12 07:34:07;;;;;;;7.40;5.63;;;24.30;96.10;;;;;;4957419;28;20202;-80
2021/06/12 07:36:32;;;;;;;7.17;5.50;;;23.90;94.20;;;;;;4957460;28;20935;-79
2021/06/12 07:38:58;;;;;;;6.23;5.60;;;23.80;96.10;;;;;;4957912;28;20457;-79
2021/06/12 07:41:24;;;;;;;6.67;5.40;;;23.60;96.00;;;;;;4956947;29;20285;-80
2021/06/12 07:43:50;;;;;;;7.70;6.70;;;23.50;96.30;;;;;;4958092;28;20441;-77
2021/06/12 07:46:16;;;;;;;9.47;6.00;;;23.50;96.30;;;;;;4965679;28;20237;-79
2021/06/12 07:48:42;;;;;;;8.20;6.80;;;24.10;96.30;;;;;;4978316;28;20417;-83
2021/06/12 07:51:08;;;;;;;6.47;5.87;;;25.10;94.20;;;;;;4978678;28;20204;-81
2021/06/12 07:53:34;;;;;;;7.40;6.30;;;25.70;90.20;;;;;;4970644;28;20190;-81
2021/06/12 07:56:00;;;;;;;7.13;5.97;;;25.60;91.80;;;;;;4961040;28;20666;-83
2021/06/12 07:58:26;;;;;;;8.00;7.20;;;25.40;92.30;;;;;;4960136;28;20421;-82
2021/06/12 08:00:51;;;;;;;9.90;6.90;;;25.20;92.40;;;;;;4961196;28;20576;-82
2021/06/12 08:03:17;;;;;;;7.30;6.60;;;25.60;90.60;;;;;;4960609;28;20193;-82
2021/06/12 08:05:42;;;;;;;7.60;6.90;;;26.10;90.70;;;;;;4969797;28;20186;-84
2021/06/12 08:08:08;;;;;;;7.00;6.30;;;27.10;90.50;;;;;;4970512;28;20635;-84
2021/06/12 08:10:33;;;;;;;8.17;7.23;;;27.40;88.70;;;;;;4950832;29;20202;-82
2021/06/12 08:12:59;;;;;;;13.73;7.13;;;27.00;87.80;;;;;;4958845;28;20635;-82
2021/06/12 08:15:24;;;;;;;17.13;7.50;;;27.10;90.50;;;;;;4958273;28;20179;-82
2021/06/12 08:17:51;;;;;;;8.40;7.17;;;27.60;88.80;;;;;;4956919;29;20313;-80
2021/06/12 08:20:16;;;;;;;8.70;7.80;;;26.90;88.50;;;;;;4950092;29;20570;-81
2021/06/12 08:22:42;;;;;;;9.57;7.50;;;26.70;89.60;;;;;;4958888;28;20429;-80
2021/06/12 08:25:09;;;;;;;9.20;8.10;;;26.80;88.80;;;;;;4960624;28;20182;-80
2021/06/12 08:27:35;;;;;;;7.73;6.97;;;26.40;90.20;;;;;;4960497;28;20276;-82
2021/06/12 08:30:03;;;;;;;10.73;8.70;;;26.10;90.00;;;;;;4957976;28;20414;-82
2021/06/12 08:32:28;;;;;;;10.20;7.20;;;26.00;90.70;;;;;;4958197;28;20440;-83
2021/06/12 08:34:54;;;;;;;9.43;8.13;;;26.00;92.00;;;;;;4957588;28;20918;-83
2021/06/12 08:37:19;;;;;;;13.50;8.70;;;25.60;91.10;;;;;;4955444;28;20181;-83
2021/06/12 08:39:45;;;;;;;10.53;7.20;;;24.80;93.10;;;;;;4956676;28;20174;-84
2021/06/12 08:42:10;;;;;;;15.57;10.10;;;24.40;95.90;;;;;;4956409;28;20222;-84
2021/06/12 08:44:36;;;;;;;11.20;8.30;;;23.90;94.60;;;;;;4954498;28;20262;-84
2021/06/12 08:47:02;;;;;;;10.77;8.07;;;23.60;96.30;;;;;;4946343;29;20222;-81
2021/06/12 08:49:28;;;;;;;10.67;8.27;;;23.30;96.30;;;;;;4956378;28;20170;-82
2021/06/12 08:51:53;;;;;;;14.00;8.70;;;23.10;96.30;;;;;;4956022;28;20218;-81
2021/06/12 08:54:21;;;;;;;9.60;8.33;;;22.90;96.30;;;;;;4956504;28;20187;-83
2021/06/12 08:56:47;;;;;;;11.17;8.67;;;22.90;96.30;;;;;;4955910;28;20538;-83
2021/06/12 08:59:14;;;;;;;15.03;8.93;;;22.90;96.30;;;;;;4955211;28;20434;-84
2021/06/12 09:01:41;;;;;;;12.37;9.00;;;23.00;96.30;;;;;;4956410;28;20454;-84
2021/06/12 09:04:06;;;;;;;14.60;9.13;;;23.40;96.30;;;;;;4956403;28;20426;-83
2021/06/12 09:06:32;;;;;;;22.83;9.83;;;23.40;96.30;;;;;;4956234;28;20470;-84
2021/06/12 09:08:58;;;;;;;14.40;8.87;;;23.70;96.30;;;;;;4957087;28;20199;-82
2021/06/12 09:11:25;;;;;;;12.90;9.43;;;23.80;96.30;;;;;;4956847;28;20226;-82
2021/06/12 09:14:01;;;;;;;12.13;10.77;;;23.10;96.30;;;;;;4955048;29;20179;-82
2021/06/12 09:16:36;;;;;;;12.80;10.27;;;22.40;96.30;;;;;;4956541;28;20398;-81
2021/06/12 09:19:21;;;;;;;14.53;9.17;;;22.30;96.30;;;;;;4957387;28;20414;-80
2021/06/12 09:22:09;;;;;;;13.70;9.93;;;22.50;96.30;;;;;;4956613;28;20430;-82
2021/06/12 09:24:49;;;;;;;28.33;9.73;;;22.70;96.30;;;;;;4955827;29;20427;-81
2021/06/12 09:27:17;;;;;;;16.03;9.80;;;22.70;96.30;;;;;;4960134;28;20486;-81
2021/06/12 09:29:48;;;;;;;13.23;9.70;;;22.60;96.30;;;;;;4956846;28;20442;-80
2021/06/12 09:32:16;;;;;;;13.53;9.23;;;23.00;96.30;;;;;;4957309;28;20445;-81
2021/06/12 09:34:43;;;;;;;10.80;9.03;;;23.20;96.30;;;;;;4955514;28;20426;-82
2021/06/12 09:37:17;;;;;;;12.37;9.50;;;23.90;96.30;;;;;;4955760;28;20419;-82
2021/06/12 09:40:03;;;;;;;21.23;9.37;;;24.40;96.30;;;;;;4954547;29;20470;-83
2021/06/12 09:42:47;;;;;;;20.53;10.97;;;25.40;96.30;;;;;;4955467;28;20454;-84
2021/06/12 09:45:25;;;;;;;17.37;11.23;;;25.90;93.80;;;;;;4953932;28;20425;-83
2021/06/12 09:47:51;;;;;;;12.57;9.80;;;25.90;90.20;;;;;;4953677;29;20453;-84
2021/06/12 09:50:21;;;;;;;17.47;9.07;;;26.20;93.70;;;;;;4955272;28;20402;-84
2021/06/12 09:52:48;;;;;;;15.00;8.60;;;27.10;93.30;;;;;;4953838;28;20922;-84
2021/06/12 09:55:29;;;;;;;13.00;8.57;;;26.80;89.80;;;;;;4954959;28;20418;-84
2021/06/12 09:57:56;;;;;;;11.03;8.53;;;26.10;89.10;;;;;;4953111;29;20422;-83
2021/06/12 10:00:32;;;;;;;10.43;8.77;;;25.10;90.30;;;;;;4954813;28;20472;-82
2021/06/12 10:02:57;;;;;;;14.57;8.17;;;24.20;89.30;;;;;;4955100;28;20487;-84
2021/06/12 10:05:25;;;;;;;13.50;9.10;;;23.70;94.00;;;;;;4953667;29;20934;-83
2021/06/12 10:07:51;;;;;;;12.30;9.70;;;22.40;96.30;;;;;;4954452;28;20197;-84
2021/06/12 10:10:17;;;;;;;16.83;8.90;;;22.10;96.30;;;;;;4954737;28;20517;-83
2021/06/12 10:12:42;;;;;;;27.03;9.20;;;21.80;96.30;;;;;;4954398;29;20942;-82
2021/06/12 10:15:11;;;;;;;11.20;7.87;;;21.60;96.30;;;;;;4955443;28;20171;-83
2021/06/12 10:17:50;;;;;;;17.33;8.97;;;21.80;96.30;;;;;;4953750;29;20175;-83
2021/06/12 10:20:24;;;;;;;13.03;9.17;;;23.30;96.30;;;;;;4954905;28;20406;-82
2021/06/12 10:22:51;;;;;;;16.73;8.93;;;23.40;96.30;;;;;;4955584;28;20887;-82
2021/06/12 10:25:19;;;;;;;25.53;9.23;;;24.30;96.30;;;;;;4960295;28;20446;-82
2021/06/12 10:27:45;;;;;;;12.83;8.33;;;24.20;94.90;;;;;;4955730;28;20978;-82
2021/06/12 10:30:17;;;;;;;12.40;8.77;;;23.00;96.30;;;;;;4953928;29;20411;-83
2021/06/12 10:32:47;;;;;;;13.90;8.53;;;23.00;96.30;;;;;;4954349;28;20458;-82
2021/06/12 10:35:22;;;;;;;12.47;9.10;;;22.60;96.30;;;;;;4954129;28;20411;-82
2021/06/12 10:38:04;;;;;;;10.70;8.57;;;23.00;96.30;;;;;;4953647;28;20477;-82
2021/06/12 10:40:39;;;;;;;10.97;7.70;;;23.30;96.30;;;;;;4953951;28;20418;-82
2021/06/12 10:43:06;;;;;;;9.50;7.60;;;22.90;96.30;;;;;;4955489;28;20452;-81
2021/06/12 10:45:32;;;;;;;12.63;7.17;;;22.70;96.30;;;;;;4955007;28;20415;-81
2021/06/12 10:47:57;;;;;;;18.13;8.03;;;22.70;96.30;;;;;;4955249;28;20454;-81
2021/06/12 10:50:25;;;;;;;9.53;8.23;;;22.60;96.30;;;;;;4955820;28;20183;-81
2021/06/12 10:52:53;;;;;;;11.83;7.40;;;21.70;96.30;;;;;;4957257;28;20229;-81
2021/06/12 10:55:41;;;;;;;11.93;7.47;;;21.90;96.30;;;;;;4952400;28;20426;-81
2021/06/12 10:58:31;;;;;;;9.23;7.07;;;23.50;96.30;;;;;;4951562;28;20449;-82
2021/06/12 11:01:09;;;;;;;9.50;6.87;;;24.00;96.30;;;;;;4954812;28;20458;-82
2021/06/12 11:04:13;;;;;;;8.73;6.97;;;24.30;96.30;;;;;;4952872;28;20429;-81
2021/06/12 11:06:54;;;;;;;16.23;6.70;;;24.40;96.30;;;;;;4952729;28;20458;-81
2021/06/12 11:09:26;;;;;;;8.00;6.53;;;25.30;96.30;;;;;;4954409;28;20446;-81
2021/06/12 11:11:54;;;;;;;6.30;5.10;;;25.30;96.30;;;;;;4954867;28;20875;-81
2021/06/12 11:14:22;;;;;;;11.87;6.27;;;24.90;95.10;;;;;;4955445;28;20822;-81
2021/06/12 11:17:12;;;;;;;19.80;6.70;;;24.50;93.20;;;;;;4954032;28;20413;-81
2021/06/12 11:19:42;;;;;;;9.07;5.33;;;24.10;96.30;;;;;;4953896;28;20419;-81
2021/06/12 11:22:28;;;;;;;8.93;6.60;;;23.60;96.20;;;;;;4956066;28;20441;-81
2021/06/12 11:25:06;;;;;;;21.10;6.50;;;23.80;96.30;;;;;;4954650;29;20417;-81
2021/06/12 11:27:37;;;;;;;7.20;6.47;;;24.60;96.30;;;;;;4958062;28;20422;-82
2021/06/12 11:30:24;;;;;;;9.93;6.00;;;25.00;95.60;;;;;;4955968;28;20838;-81
2021/06/12 11:32:52;;;;;;;8.47;6.77;;;25.40;94.20;;;;;;4957777;28;20414;-79
2021/06/12 11:35:52;;;;;;;6.20;5.33;;;25.40;91.00;;;;;;4957230;28;20809;-80
2021/06/12 11:38:31;;;;;;;7.97;5.57;;;25.00;92.10;;;;;;4966568;28;20402;-80
2021/06/12 11:41:01;;;;;;;7.10;5.90;;;24.70;93.10;;;;;;4970779;28;20430;-79
2021/06/12 11:43:38;;;;;;;12.93;5.40;;;24.60;93.70;;;;;;4962079;28;20481;-79
2021/06/12 11:46:15;;;;;;;7.30;6.60;;;25.00;92.80;;;;;;4958098;28;20414;-79
2021/06/12 11:48:44;;;;;;;8.80;6.57;;;24.70;92.60;;;;;;4958177;28;20442;-79
2021/06/12 11:51:16;;;;;;;8.60;6.33;;;24.00;93.20;;;;;;4958242;28;20434;-79
2021/06/12 11:53:44;;;;;;;5.60;5.07;;;23.80;94.50;;;;;;4958315;28;20425;-79
2021/06/12 11:56:09;;;;;;;8.83;6.03;;;23.50;95.40;;;;;;4959428;28;20425;-79
2021/06/12 11:58:54;;;;;;;10.23;6.80;;;23.20;96.30;;;;;;4960257;28;20422;-79
2021/06/12 12:01:36;;;;;;;10.73;6.93;;;23.20;95.50;;;;;;4960841;28;20211;-80
2021/06/12 12:04:10;;;;;;;7.60;6.80;;;22.80;96.30;;;;;;4960129;28;20421;-79
2021/06/12 12:06:36;;;;;;;11.00;8.50;;;22.90;96.30;;;;;;4956903;29;20542;-79
2021/06/12 12:09:05;;;;;;;12.03;8.10;;;23.50;96.30;;;;;;4960704;28;20414;-79
2021/06/12 12:11:32;;;;;;;10.00;7.37;;;24.00;94.50;;;;;;4959286;28;20195;-79
2021/06/12 12:13:59;;;;;;;12.90;8.27;;;23.60;93.10;;;;;;4960193;28;20414;-79
2021/06/12 12:16:25;;;;;;;12.67;7.50;;;23.60;96.30;;;;;;4958356;29;20461;-79
2021/06/12 12:18:56;;;;;;;10.47;8.00;;;23.30;95.30;;;;;;4953305;29;20437;-79
2021/06/12 12:21:36;;;;;;;10.50;8.10;;;23.30;95.30;;;;;;4954742;29;20441;-80
2021/06/12 12:24:07;;;;;;;8.87;7.50;;;23.20;95.10;;;;;;4959866;29;20445;-80
2021/06/12 12:26:34;;;;;;;9.77;7.80;;;23.10;93.50;;;;;;4960494;29;20478;-79
2021/06/12 12:29:07;;;;;;;13.60;8.07;;;23.00;96.30;;;;;;4966268;28;20458;-79
2021/06/12 12:31:39;;;;;;;8.03;7.20;;;23.20;96.30;;;;;;4957961;28;20434;-79
2021/06/12 12:34:05;;;;;;;9.00;7.17;;;23.60;96.30;;;;;;4956385;28;20422;-78
2021/06/12 12:36:40;;;;;;;11.43;6.83;;;24.00;96.00;;;;;;4955577;28;20776;-78
2021/06/12 12:39:06;;;;;;;7.27;6.60;;;23.80;96.30;;;;;;4956485;28;20175;-78
2021/06/12 12:41:32;;;;;;;7.17;6.57;;;23.80;95.90;;;;;;4956515;28;20437;-80
2021/06/12 12:44:17;;;;;;;7.00;6.30;;;23.60;94.80;;;;;;4955952;28;21042;-79
2021/06/12 12:46:45;;;;;;;10.57;6.93;;;23.60;94.10;;;;;;4955553;28;20541;-80
2021/06/12 12:49:18;;;;;;;7.87;6.30;;;23.30;96.20;;;;;;4959109;28;20411;-79
2021/06/12 12:51:56;;;;;;;11.97;6.40;;;23.30;94.40;;;;;;4958508;28;20509;-81
2021/06/12 12:54:23;;;;;;;7.00;5.43;;;23.20;93.50;;;;;;4957973;28;20414;-79
2021/06/12 12:56:52;;;;;;;8.70;5.80;;;23.20;94.00;;;;;;4955956;28;20932;-78
2021/06/12 12:59:27;;;;;;;7.90;5.20;;;23.10;96.30;;;;;;4956632;28;20454;-79
2021/06/12 13:01:53;;;;;;;5.63;5.13;;;22.90;93.40;;;;;;4955097;28;20466;-78
2021/06/12 13:04:31;;;;;;;5.30;4.47;;;22.60;96.30;;;;;;4956107;28;20919;-79
2021/06/12 13:07:22;;;;;;;5.77;4.20;;;22.40;96.30;;;;;;4956294;28;20734;-77
2021/06/12 13:10:05;;;;;;;27.43;6.60;;;22.50;96.30;;;;;;4955677;28;20801;-79
2021/06/12 13:12:31;;;;;;;13.50;4.70;;;22.20;96.30;;;;;;4938955;29;20441;-79
2021/06/12 13:15:00;;;;;;;5.77;5.20;;;21.70;96.30;;;;;;4950535;29;20522;-78
2021/06/12 13:17:30;;;;;;;4.63;4.23;;;21.50;96.30;;;;;;4955620;28;20179;-79
2021/06/12 13:19:59;;;;;;;6.33;3.83;;;21.40;95.60;;;;;;4956587;28;20501;-79
2021/06/12 13:22:34;;;;;;;4.70;3.13;;;21.50;96.30;;;;;;4956164;28;20488;-79
2021/06/12 13:25:05;;;;;;;5.20;3.40;;;21.50;96.30;;;;;;4956199;28;20421;-79
2021/06/12 13:27:35;;;;;;;7.33;2.30;;;21.80;92.60;;;;;;4955401;28;20458;-79
2021/06/12 13:30:00;;;;;;;3.67;2.90;;;21.80;95.40;;;;;;4955637;28;20422;-78
2021/06/12 13:32:30;;;;;;;2.97;2.77;;;21.90;93.70;;;;;;4959746;28;20430;-79
2021/06/12 13:34:56;;;;;;;2.50;2.30;;;22.00;94.10;;;;;;4955984;28;20178;-79
2021/06/12 13:37:23;;;;;;;2.50;2.30;;;22.40;94.90;;;;;;4956063;28;20510;-79
2021/06/12 13:39:54;;;;;;;3.07;2.50;;;22.40;96.00;;;;;;4956838;28;20740;-79
2021/06/12 13:42:21;;;;;;;4.10;2.30;;;22.80;92.80;;;;;;4954597;29;20537;-79
2021/06/12 13:45:09;;;;;;;3.50;2.50;;;22.90;91.60;;;;;;4956011;28;20419;-79
2021/06/12 13:47:36;;;;;;;5.90;2.57;;;22.60;94.20;;;;;;4954191;29;20492;-78
2021/06/12 13:50:06;;;;;;;6.70;2.57;;;22.60;93.90;;;;;;4956460;28;20413;-81
2021/06/12 13:52:33;;;;;;;4.97;2.57;;;22.60;92.60;;;;;;4957453;28;20474;-80
2021/06/12 13:54:59;;;;;;;3.27;1.97;;;22.60;94.00;;;;;;4948996;28;20442;-81
2021/06/12 13:57:24;;;;;;;5.53;2.43;;;22.60;92.90;;;;;;4952875;29;20545;-81
2021/06/12 13:59:50;;;;;;;3.20;2.30;;;22.60;95.80;;;;;;4938491;28;20546;-80
2021/06/12 14:02:15;;;;;;;6.07;2.07;;;22.70;93.70;;;;;;4943164;29;20226;-80
2021/06/12 14:04:42;;;;;;;2.57;2.37;;;22.40;93.30;;;;;;4958347;28;20175;-80
2021/06/12 14:07:07;;;;;;;5.60;2.13;;;22.40;93.70;;;;;;4957010;28;20198;-80
2021/06/12 14:09:36;;;;;;;1.80;1.70;;;22.10;95.00;;;;;;4958539;28;20402;-80
2021/06/12 14:12:02;;;;;;;4.90;2.03;;;21.90;96.20;;;;;;4943487;28;20211;-80
2021/06/12 14:14:29;;;;;;;2.57;2.17;;;22.00;96.30;;;;;;4938007;29;20900;-80
2021/06/12 14:16:55;;;;;;;5.63;2.10;;;22.00;96.20;;;;;;4939175;29;20423;-78
2021/06/12 14:19:21;;;;;;;3.70;1.83;;;21.90;96.30;;;;;;4960403;28;20491;-79
2021/06/12 14:21:47;;;;;;;2.70;2.20;;;21.60;96.30;;;;;;4959758;28;20209;-77
2021/06/12 14:24:15;;;;;;;2.37;2.00;;;21.30;96.30;;;;;;4954200;28;20685;-77
2021/06/12 14:26:46;;;;;;;2.60;2.30;;;20.80;96.30;;;;;;4953278;28;20524;-77
2021/06/12 14:29:15;;;;;;;2.67;1.90;;;20.40;96.30;;;;;;4955378;28;20387;-77
2021/06/12 14:31:40;;;;;;;5.23;2.27;;;20.10;96.30;;;;;;4953473;28;20955;-77
2021/06/12 14:34:06;;;;;;;5.67;1.97;;;20.00;96.30;;;;;;4953646;28;20441;-77
2021/06/12 14:36:32;;;;;;;2.50;2.30;;;19.90;96.30;;;;;;4954286;28;20175;-80
2021/06/12 14:38:57;;;;;;;3.43;2.90;;;19.70;96.30;;;;;;4954743;28;20547;-78
2021/06/12 14:41:23;;;;;;;2.90;2.50;;;19.50;96.30;;;;;;4954304;28;20297;-78
2021/06/12 14:43:48;;;;;;;3.83;2.53;;;19.40;96.30;;;;;;4954222;28;20182;-79
2021/06/12 14:46:14;;;;;;;3.00;2.70;;;19.30;96.30;;;;;;4954189;28;20199;-80
2021/06/12 14:48:39;;;;;;;4.90;3.00;;;19.20;96.30;;;;;;4957230;28;20626;-77
2021/06/12 14:51:05;;;;;;;4.67;2.73;;;19.00;96.30;;;;;;4953590;28;20198;-76
2021/06/12 14:53:31;;;;;;;5.50;2.20;;;18.80;96.30;;;;;;4953676;28;20589;-76
2021/06/12 14:55:56;;;;;;;3.60;2.30;;;18.70;96.30;;;;;;4953879;28;20543;-76
2021/06/12 14:58:22;;;;;;;5.53;2.10;;;18.70;96.30;;;;;;4954070;28;20217;-77
2021/06/12 15:00:48;;;;;;;5.27;2.07;;;18.60;96.30;;;;;;4954040;28;20283;-77
2021/06/12 15:03:16;;;;;;;6.23;2.50;;;18.50;96.30;;;;;;4955055;28;20593;-79
2021/06/12 15:05:42;;;;;;;4.93;2.10;;;18.40;96.30;;;;;;4955751;28;20407;-79
2021/06/12 15:08:07;;;;;;;4.37;2.40;;;;;;;;;;4953856;28;20513;-79
2021/06/12 15:10:33;;;;;;;3.90;2.27;;;18.20;96.30;;;;;;4953796;28;20167;-78
2021/06/12 15:12:59;;;;;;;3.97;2.40;;;18.10;96.30;;;;;;4954839;28;20234;-79
2021/06/12 15:15:24;;;;;;;5.17;2.43;;;18.10;96.30;;;;;;4955971;28;20174;-79
2021/06/12 15:17:50;;;;;;;5.47;2.13;;;18.10;96.30;;;;;;4956562;28;20201;-81
2021/06/12 15:20:16;;;;;;;4.37;2.43;;;18.10;96.30;;;;;;4958749;28;20215;-79
2021/06/12 15:22:41;;;;;;;3.10;2.30;;;18.10;96.30;;;;;;4958269;28;20203;-78
2021/06/12 15:25:08;;;;;;;5.60;2.10;;;18.10;96.30;;;;;;4956931;29;20187;-80
2021/06/12 15:27:34;;;;;;;4.40;2.40;;;18.20;96.30;;;;;;4956680;28;20210;-77
2021/06/12 15:30:00;;;;;;;1.77;1.67;;;18.20;96.30;;;;;;4959844;28;20877;-78
2021/06/12 15:32:26;;;;;;;2.43;2.23;;;18.30;96.30;;;;;;4957874;28;20445;-79
2021/06/12 15:34:52;;;;;;;2.07;1.70;;;18.30;96.30;;;;;;4961557;28;20493;-80
2021/06/12 15:37:19;;;;;;;5.97;2.20;;;18.20;96.30;;;;;;4958486;28;20191;-80
2021/06/12 15:39:44;;;;;;;2.50;2.10;;;18.10;96.30;;;;;;4959423;29;20428;-81
2021/06/12 15:42:10;;;;;;;2.53;2.33;;;17.90;96.30;;;;;;4961266;28;20529;-80
2021/06/12 15:44:35;;;;;;;2.93;2.60;;;17.70;96.30;;;;;;4959454;28;20639;-79
2021/06/12 15:47:01;;;;;;;4.33;3.30;;;17.40;96.30;;;;;;4958296;28;20195;-80
2021/06/12 15:49:27;;;;;;;4.53;3.07;;;17.20;96.30;;;;;;4960274;28;20644;-79
2021/06/12 15:51:52;;;;;;;10.00;3.43;;;17.10;96.30;;;;;;4958668;28;20671;-80
2021/06/12 15:54:18;;;;;;;3.20;3.00;;;17.10;96.30;;;;;;4958258;28;20257;-79
2021/06/12 15:56:43;;;;;;;3.97;3.20;;;17.00;96.30;;;;;;4957010;28;20547;-79
2021/06/12 15:59:09;;;;;;;4.83;3.80;;;16.80;96.30;;;;;;4957335;28;20207;-80
2021/06/12 16:01:34;;;;;;;3.73;3.43;;;;;;;;;;4956607;28;20779;-79
2021/06/12 16:04:00;;;;;;;4.50;4.10;;;16.40;96.30;;;;;;4957076;28;20634;-77
2021/06/12 16:06:25;;;;;;;3.83;3.53;;;16.30;96.30;;;;;;4956016;28;20592;-78
2021/06/12 16:08:51;;;;;;;4.07;3.67;;;16.20;96.30;;;;;;4956727;28;20214;-77
2021/06/12 16:11:17;;;;;;;3.90;3.60;;;;;;;;;;4956780;28;20231;-77
2021/06/12 16:13:42;;;;;;;4.60;4.20;;;16.20;96.30;;;;;;4956871;28;20207;-78
2021/06/12 16:16:10;;;;;;;4.63;3.97;;;16.40;96.30;;;;;;4954966;29;20179;-78
2021/06/12 16:18:38;;;;;;;5.00;4.00;;;16.40;96.30;;;;;;4954295;28;20590;-77
2021/06/12 16:21:04;;;;;;;6.27;4.83;;;16.40;96.30;;;;;;4949166;29;20469;-77
2021/06/12 16:23:30;;;;;;;4.73;4.27;;;16.40;96.30;;;;;;4954580;28;20446;-78
2021/06/12 16:25:55;;;;;;;4.60;4.20;;;16.40;96.30;;;;;;4955471;28;20171;-77
2021/06/12 16:28:21;;;;;;;4.70;4.13;;;16.40;96.30;;;;;;4954613;28;20203;-77
2021/06/12 16:30:46;;;;;;;100.63;72.00;;;16.30;96.30;;;;;;4955799;28;20689;-76
2021/06/12 16:33:12;;;;;;;439.07;344.50;;;16.30;96.30;;;;;;4955862;28;20178;-77
2021/06/12 16:35:37;;;;;;;207.00;185.30;;;16.30;96.30;;;;;;4957301;28;20179;-78
2021/06/12 16:38:03;;;;;;;400.93;361.03;;;16.30;96.30;;;;;;4959056;28;20206;-78
2021/06/12 16:40:32;;;;;;;16.60;14.90;;;16.30;96.30;;;;;;4960107;28;20651;-80
2021/06/12 16:42:58;;;;;;;7.13;5.70;;;;;;;;;;4961138;28;20334;-78
2021/06/12 16:45:23;;;;;;;6.83;5.60;;;16.40;96.30;;;;;;4960265;28;20454;-78
2021/06/12 16:47:49;;;;;;;7.07;5.70;;;16.30;96.30;;;;;;4961230;28;20218;-76
2021/06/12 16:50:16;;;;;;;13.47;8.07;;;16.30;96.30;;;;;;4959067;28;20582;-78
2021/06/12 16:52:42;;;;;;;8.13;5.57;;;16.30;96.30;;;;;;4961589;28;20694;-77